Time;durP1;ratioP1;P1;durP2;ratioP2;P2;SDS_P1;SDS_P2;PMS_P1;PMS_P2;Temp;Humidity;BMP_temperature;BMP_pressure;BME280_temperature;BME280_humidity;BME280_pressure;Samples;Min_cycle;Max_cycle;Signal;HPM_P1;HPM_P2
2021/09/11 00:05:04;;;;;;;7.97;5.30;;;;;;;18.82;77.62;100549.03;20666417;28;20384;-72
2021/09/11 00:15:08;;;;;;;7.60;4.97;;;;;;;18.87;77.42;100544.38;20666277;28;20061;-72
2021/09/11 00:25:10;;;;;;;7.03;4.47;;;;;;;18.88;77.34;100538.16;20664835;28;20054;-72
2021/09/11 00:35:17;;;;;;;6.50;4.53;;;;;;;18.95;76.95;100550.19;20663652;28;20046;-72
2021/09/11 00:45:21;;;;;;;7.32;4.45;;;;;;;18.91;77.75;100556.56;20663301;28;20073;-72
2021/09/11 00:55:23;;;;;;;8.53;5.37;;;;;;;18.96;77.64;100562.50;20662822;28;20101;-72
2021/09/11 01:05:25;;;;;;;7.65;4.25;;;;;;;18.88;77.80;100564.69;20661865;28;20042;-72
2021/09/11 01:15:35;;;;;;;6.90;4.72;;;;;;;18.81;79.14;100574.72;20661419;28;20047;-72
2021/09/11 01:25:37;;;;;;;7.10;5.40;;;;;;;18.79;79.15;100578.41;20659857;28;20058;-71
2021/09/11 01:35:39;;;;;;;9.43;5.82;;;;;;;18.78;79.26;100574.88;20659239;28;20043;-72
2021/09/11 01:45:41;;;;;;;9.02;6.05;;;;;;;18.59;80.42;100568.66;20658490;28;20077;-72
2021/09/11 01:55:43;;;;;;;7.57;6.05;;;;;;;18.60;80.18;100571.25;20658604;28;20428;-72
2021/09/11 02:05:46;;;;;;;9.85;6.50;;;;;;;18.53;81.08;100574.25;20657386;28;20616;-72
2021/09/11 02:15:48;;;;;;;10.68;6.70;;;;;;;18.48;81.35;100566.50;20657512;28;20062;-72
2021/09/11 02:25:51;;;;;;;8.60;6.38;;;;;;;18.42;81.52;100566.78;20656284;28;20793;-71
2021/09/11 02:35:53;;;;;;;8.57;6.45;;;;;;;18.32;81.39;100574.28;20654585;28;20042;-72
2021/09/11 02:45:56;;;;;;;10.25;6.72;;;;;;;18.19;82.07;100570.47;20655476;28;20086;-71
2021/09/11 02:55:57;;;;;;;8.60;6.05;;;;;;;18.18;82.08;100566.97;20655197;28;20050;-72
2021/09/11 03:05:59;;;;;;;10.13;6.72;;;;;;;17.96;82.77;100590.00;20654428;28;20042;-71
2021/09/11 03:16:01;;;;;;;7.90;6.07;;;;;;;17.77;84.56;100586.44;20657355;28;20477;-71
2021/09/11 03:26:04;;;;;;;8.73;6.18;;;;;;;17.79;84.16;100569.56;20655392;28;20066;-72
2021/09/11 03:36:06;;;;;;;9.43;6.50;;;;;;;17.83;83.94;100568.50;20653701;28;20046;-72
2021/09/11 03:46:08;;;;;;;9.38;5.90;;;;;;;17.75;83.85;100565.31;20655314;28;20485;-71
2021/09/11 03:56:10;;;;;;;10.57;6.70;;;;;;;17.60;84.32;100574.75;20667667;28;20515;-72
2021/09/11 04:06:12;;;;;;;8.98;6.32;;;;;;;17.60;84.77;100569.44;20666736;28;20042;-72
2021/09/11 04:16:14;;;;;;;10.10;7.53;;;;;;;17.60;84.65;100571.25;20666853;28;20046;-71
2021/09/11 04:26:15;;;;;;;10.27;7.80;;;;;;;17.57;85.28;100577.50;20666541;28;20042;-71
2021/09/11 04:36:18;;;;;;;10.55;8.07;;;;;;;17.76;84.56;100576.78;20647879;28;20735;-71
2021/09/11 04:46:20;;;;;;;10.68;7.85;;;;;;;17.88;83.73;100586.84;20663612;28;20083;-71
2021/09/11 04:56:21;;;;;;;10.82;7.40;;;;;;;17.88;83.92;100586.84;20663408;28;20050;-72
2021/09/11 05:06:23;;;;;;;12.52;8.23;;;;;;;17.75;84.25;100580.34;20662028;28;20416;-72
2021/09/11 05:16:25;;;;;;;11.25;7.72;;;;;;;17.75;84.77;100580.34;20662726;28;20051;-71
2021/09/11 05:26:27;;;;;;;12.95;8.35;;;;;;;17.70;84.88;100591.97;20659738;28;20070;-71
2021/09/11 05:36:29;;;;;;;14.10;9.88;;;;;;;17.84;84.50;100599.38;20659920;28;20198;-71
2021/09/11 05:46:31;;;;;;;11.93;8.63;;;;;;;17.81;84.63;100612.72;20658044;28;20050;-71
2021/09/11 05:56:33;;;;;;;12.05;8.45;;;;;;;17.92;83.88;100609.66;20658615;28;20054;-71
2021/09/11 06:06:36;;;;;;;12.23;9.27;;;;;;;17.90;84.39;100619.44;20657516;28;20054;-71
2021/09/11 06:16:38;;;;;;;12.63;9.00;;;;;;;18.08;83.71;100610.69;20639623;28;20050;-71
2021/09/11 06:26:40;;;;;;;11.63;8.32;;;;;;;18.19;83.44;100623.47;20657774;28;20081;-71
2021/09/11 06:36:41;;;;;;;11.02;8.45;;;;;;;18.31;82.62;100630.91;20639561;28;20104;-71
2021/09/11 06:46:43;;;;;;;11.23;8.60;;;;;;;18.41;82.42;100628.69;20656204;28;20051;-71
2021/09/11 06:56:45;;;;;;;9.93;7.80;;;;;;;18.54;81.98;100635.19;20655387;28;20508;-71
2021/09/11 07:06:47;;;;;;;9.93;7.22;;;;;;;18.81;80.94;100632.22;20657291;28;20042;-71
2021/09/11 07:16:49;;;;;;;11.52;7.38;;;;;;;19.13;79.11;100631.59;20711534;28;20093;-71
2021/09/11 07:26:51;;;;;;;13.80;6.72;;;;;;;19.14;79.18;100629.78;20680761;28;20097;-71
2021/09/11 07:36:52;;;;;;;8.93;6.55;;;;;;;19.14;79.30;100635.97;20681330;28;20045;-72
2021/09/11 07:46:55;;;;;;;9.52;6.45;;;;;;;19.16;79.37;100654.44;20750004;28;20058;-71
2021/09/11 07:56:57;;;;;;;9.93;7.22;;;;;;;19.43;78.63;100653.13;20750660;28;20103;-70
2021/09/11 08:06:58;;;;;;;9.27;6.80;;;;;;;19.69;77.57;100673.19;20749465;28;20508;-72
2021/09/11 08:17:01;;;;;;;9.73;6.35;;;;;;;19.79;77.47;100686.00;20690277;28;20448;-71
2021/09/11 08:27:04;;;;;;;11.77;7.10;;;;;;;20.10;75.79;100680.84;20667444;28;20054;-71
2021/09/11 08:37:06;;;;;;;8.80;6.35;;;;;;;20.32;75.27;100671.81;20664741;28;20047;-72
2021/09/11 08:47:08;;;;;;;8.15;5.55;;;;;;;20.64;74.47;100675.44;20664804;28;20121;-72
2021/09/11 08:57:25;;;;;;;8.90;5.22;;;;;;;20.76;73.67;100688.09;20665055;28;20390;-71
2021/09/11 09:07:30;;;;;;;9.65;5.82;;;;;;;21.20;72.28;100685.69;20663353;28;20412;-71
2021/09/11 09:17:48;;;;;;;10.95;6.05;;;;;;;20.72;73.30;100679.41;20726419;28;20049;-71
2021/09/11 09:27:51;;;;;;;9.55;5.55;;;;;;;20.89;72.87;100678.53;20744220;28;20049;-72
2021/09/11 09:38:01;;;;;;;8.73;5.50;;;;;;;21.65;69.85;100670.72;20744283;28;20050;-72
2021/09/11 09:48:07;;;;;;;7.05;4.63;;;;;;;22.51;66.99;100660.34;20741122;28;20049;-72
2021/09/11 09:58:09;;;;;;;5.00;3.40;;;;;;;21.98;66.70;100656.41;20741602;28;20104;-72
2021/09/11 10:08:12;;;;;;;6.60;4.00;;;;;;;22.43;66.36;100652.81;20740217;28;20408;-71
2021/09/11 10:18:29;;;;;;;6.72;3.10;;;;;;;22.46;64.75;100647.28;20671181;28;20050;-72
2021/09/11 10:28:31;;;;;;;5.10;3.28;;;;;;;21.89;65.00;100632.94;20658185;28;20468;-71
2021/09/11 10:38:41;;;;;;;7.00;3.40;;;;;;;21.66;65.50;100635.16;20656973;28;20050;-72
2021/09/11 10:48:51;;;;;;;5.30;3.05;;;;;;;21.96;66.34;100626.31;20656424;28;20054;-72
2021/09/11 10:59:18;;;;;;;5.57;3.20;;;;;;;21.86;66.65;100610.00;20664811;28;20046;-72
2021/09/11 11:09:22;;;;;;;6.00;4.30;;;;;;;22.13;65.42;100599.50;20673252;28;20039;-71
2021/09/11 11:19:32;;;;;;;5.43;3.20;;;;;;;23.04;63.37;100587.63;20751438;28;20104;-72
2021/09/11 11:29:36;;;;;;;4.80;2.80;;;;;;;23.76;60.40;100582.88;20754159;28;20042;-71
2021/09/11 11:39:42;;;;;;;5.25;3.30;;;;;;;24.08;58.50;100581.63;20751404;28;20104;-71
2021/09/11 11:49:44;;;;;;;5.25;2.80;;;;;;;23.77;60.50;100573.88;20751447;28;20057;-72
2021/09/11 12:00:00;;;;;;;6.05;3.80;;;;;;;23.53;61.51;100564.81;20750864;28;20120;-71
2021/09/11 12:10:02;;;;;;;7.05;3.45;;;;;;;23.74;62.57;100555.38;20747046;28;20115;-72
2021/09/11 12:20:14;;;;;;;6.25;3.40;;;;;;;23.69;65.74;100560.16;20668520;28;20165;-71
2021/09/11 12:30:16;;;;;;;5.40;3.30;;;;;;;23.45;71.22;100556.44;20667721;28;20050;-70
2021/09/11 12:40:19;;;;;;;6.55;3.50;;;;;;;23.41;71.12;100549.59;20649835;28;20424;-66
2021/09/11 12:50:21;;;;;;;5.22;3.50;;;;;;;22.82;71.74;100567.69;20666656;28;20046;-68
2021/09/11 13:00:23;;;;;;;5.15;3.40;;;;;;;22.89;72.79;100553.00;20664692;28;20050;-68
2021/09/11 13:10:25;;;;;;;5.75;3.67;;;;;;;23.06;73.55;100552.78;20671264;28;20053;-69
2021/09/11 13:20:27;;;;;;;6.70;3.83;;;;;;;23.30;73.50;100535.13;20744142;28;20120;-68
2021/09/11 13:30:28;;;;;;;6.38;3.80;;;;;;;23.71;71.38;100530.66;20743751;28;20500;-69
2021/09/11 13:40:31;;;;;;;5.13;2.85;;;;;;;23.69;69.78;100522.75;20742782;28;20045;-69
2021/09/11 13:50:33;;;;;;;5.80;3.22;;;;;;;23.33;68.96;100509.16;20741915;28;20689;-69
2021/09/11 14:00:35;;;;;;;7.13;3.33;;;;;;;23.44;66.21;100528.03;20743027;28;20050;-70
2021/09/11 14:10:38;;;;;;;6.55;3.20;;;;;;;23.08;68.45;100540.19;20733670;28;20050;-68
2021/09/11 14:20:39;;;;;;;4.50;2.80;;;;;;;21.91;67.59;100569.75;20659664;28;20057;-70
2021/09/11 14:30:41;;;;;;;6.65;2.90;;;;;;;20.94;76.22;100579.78;20657959;28;20412;-69
2021/09/11 14:40:43;;;;;;;4.60;2.90;;;;;;;20.61;78.08;100564.75;20657725;28;20077;-68
2021/09/11 14:50:45;;;;;;;4.65;2.92;;;;;;;21.39;74.01;100560.34;20656357;28;20413;-68
2021/09/11 15:00:47;;;;;;;4.93;2.33;;;;;;;21.46;72.67;100560.84;20656876;28;20042;-69
2021/09/11 15:10:48;;;;;;;4.40;2.63;;;;;;;21.59;72.42;100561.84;20664910;28;20050;-70
2021/09/11 15:20:50;;;;;;;4.43;2.50;;;;;;;21.44;74.82;100560.09;20736599;28;20100;-69
2021/09/11 15:30:52;;;;;;;5.97;3.05;;;;;;;21.43;76.40;100561.91;20719575;28;20046;-69
2021/09/11 15:40:54;;;;;;;6.50;3.42;;;;;;;21.36;76.76;100571.16;20719790;28;20052;-69
2021/09/11 15:50:56;;;;;;;5.75;3.00;;;;;;;21.35;77.33;100576.59;20750467;28;20104;-69
2021/09/11 16:00:58;;;;;;;5.72;3.10;;;;;;;21.44;76.12;100568.06;20750073;28;20069;-69
2021/09/11 16:11:00;;;;;;;6.53;3.28;;;;;;;21.38;76.16;100557.78;20738704;28;20137;-69
2021/09/11 16:21:02;;;;;;;6.53;3.00;;;;;;;21.49;76.63;100558.88;20649648;28;20058;-69
2021/09/11 16:31:05;;;;;;;5.32;3.00;;;;;;;21.34;76.41;100553.56;20665875;28;20100;-69
2021/09/11 16:41:07;;;;;;;7.68;4.35;;;;;;;21.36;75.44;100557.84;20665197;28;20056;-70
2021/09/11 16:51:08;;;;;;;4.82;2.88;;;;;;;21.12;77.88;100557.44;20646038;28;20546;-70
2021/09/11 17:01:10;;;;;;;8.45;3.28;;;;;;;20.99;77.29;100556.44;20661803;28;20058;-70
2021/09/11 17:11:12;;;;;;;6.35;3.80;;;;;;;20.88;78.02;100557.00;20675059;28;20511;-70
2021/09/11 17:21:14;;;;;;;5.00;3.22;;;;;;;20.88;76.55;100553.50;20745176;28;20110;-70
2021/09/11 17:31:16;;;;;;;6.70;3.38;;;;;;;20.63;77.44;100561.97;20727017;28;20416;-70
2021/09/11 17:41:20;;;;;;;6.75;3.67;;;;;;;20.29;79.54;100573.56;20743455;28;20415;-70
2021/09/11 17:51:21;;;;;;;5.17;3.40;;;;;;;20.00;80.59;100575.94;20740727;28;20073;-70
2021/09/11 18:01:23;;;;;;;6.20;3.75;;;;;;;19.70;82.90;100576.59;20739746;28;20050;-70
2021/09/11 18:11:26;;;;;;;6.13;4.43;;;;;;;19.51;83.44;100591.69;20726388;28;20072;-70
2021/09/11 18:21:29;;;;;;;6.38;4.22;;;;;;;19.31;84.11;100602.44;20659088;28;20448;-70
2021/09/11 18:31:30;;;;;;;7.13;4.45;;;;;;;19.12;84.91;100611.28;20657949;28;20046;-71
2021/09/11 18:41:33;;;;;;;6.95;4.60;;;;;;;19.00;85.14;100627.78;20658078;28;20042;-70
2021/09/11 18:51:35;;;;;;;7.70;4.63;;;;;;;18.85;85.81;100636.47;20656884;28;20050;-70
2021/09/11 19:01:36;;;;;;;6.53;4.78;;;;;;;18.71;86.38;100642.41;20656155;28;20046;-70
2021/09/11 19:11:39;;;;;;;7.70;5.57;;;;;;;18.55;86.11;100642.22;20672374;28;20046;-70
2021/09/11 19:21:40;;;;;;;7.38;4.82;;;;;;;18.43;86.35;100654.19;20747066;28;20115;-70
2021/09/11 19:31:43;;;;;;;8.85;5.70;;;;;;;18.30;86.80;100665.41;20752148;28;20053;-71
2021/09/11 19:41:46;;;;;;;7.82;5.25;;;;;;;18.11;87.25;100663.56;20751297;28;20108;-70
2021/09/11 19:51:47;;;;;;;9.70;6.22;;;;;;;18.01;87.61;100671.94;20750422;28;20057;-70
2021/09/11 20:01:49;;;;;;;8.05;5.60;;;;;;;17.92;87.65;100678.53;20748888;28;20073;-70
2021/09/11 20:11:52;;;;;;;10.02;5.95;;;;;;;17.83;88.05;100684.19;20732019;28;20050;-70
2021/09/11 20:21:54;;;;;;;10.10;7.07;;;;;;;17.79;87.98;100678.16;20666581;28;20054;-70
2021/09/11 20:31:55;;;;;;;9.07;6.38;;;;;;;17.60;88.69;100683.31;20665062;28;20054;-70
2021/09/11 20:41:57;;;;;;;8.82;6.28;;;;;;;17.45;89.23;100683.94;20665804;28;20054;-70
2021/09/11 20:51:59;;;;;;;10.75;6.82;;;;;;;17.33;89.41;100687.03;20665027;28;20058;-70
2021/09/11 21:02:01;;;;;;;10.40;7.78;;;;;;;17.23;89.88;100688.31;20663009;28;20049;-70
2021/09/11 21:12:04;;;;;;;11.55;6.88;;;;;;;17.10;89.83;100698.50;20681364;28;20483;-70
2021/09/11 21:22:06;;;;;;;11.13;7.15;;;;;;;16.93;90.19;100710.59;20742442;28;20049;-70
2021/09/11 21:32:08;;;;;;;10.30;7.10;;;;;;;16.82;90.35;100715.41;20741710;28;20046;-71
2021/09/11 21:42:10;;;;;;;12.93;8.52;;;;;;;16.74;90.43;100721.91;20743737;28;20057;-70
2021/09/11 21:52:12;;;;;;;12.57;8.27;;;;;;;16.60;90.24;100717.06;20741762;28;20053;-70
2021/09/11 22:02:14;;;;;;;14.50;7.82;;;;;;;16.47;90.11;100710.47;20740355;28;20050;-70
2021/09/11 22:12:16;;;;;;;13.57;9.10;;;;;;;16.37;90.47;100726.66;20659526;28;20054;-70
2021/09/11 22:22:21;;;;;;;13.20;8.77;;;;;;;16.25;90.66;100723.59;20657601;28;20046;-70
2021/09/11 22:32:23;;;;;;;12.13;8.65;;;;;;;16.09;90.42;100731.16;20656793;28;20050;-70
2021/09/11 22:42:25;;;;;;;13.25;9.07;;;;;;;16.00;90.47;100739.38;20655841;28;20047;-70
2021/09/11 22:52:26;;;;;;;11.52;8.65;;;;;;;15.83;90.18;100732.00;20653479;28;20112;-71
2021/09/11 23:02:28;;;;;;;12.65;8.98;;;;;;;15.76;90.84;100741.03;20638047;28;20077;-71
2021/09/11 23:12:30;;;;;;;13.18;8.45;;;;;;;15.58;91.24;100742.44;20655994;28;20618;-71
2021/09/11 23:22:32;;;;;;;12.07;8.07;;;;;;;15.45;90.91;100726.13;20655540;28;20046;-72
2021/09/11 23:32:34;;;;;;;13.63;9.82;;;;;;;15.41;91.00;100727.13;20637429;28;20076;-72
2021/09/11 23:42:36;;;;;;;14.27;10.05;;;;;;;15.36;91.16;100716.69;20653642;28;20077;-72
2021/09/11 23:52:39;;;;;;;11.98;9.07;;;;;;;15.24;91.00;100710.94;20654788;28;20465;-71
